Delta — PDPC — position and weather

sailwx.info

Track history (hours):
 
Tides and Currents Weather Stations Pressure Air Temp Water Temp Dewpoint Dewpoint Depression Visibility Wind Speed Wind Dir Waves Ship Positions

Oceanographic research ship Delta (Netherlands)

Detailed information on ship capabilities available from University of Delaware's Ocean Information Center.

Last reported at 2017-Nov-20 00:22 UTC. Time now 2017-Nov-21 00:38 UTC.
Position N 51°40' E 004°10'.

MMSI: 244696464.

Date/timePositionNaut miles runAvg speedWind from/ knotsBaromVisibWave heightAir tempDewpointWater temp
2017-Nov-20 00:22N 51°40' E 004°10'0 0.0
2017-Nov-19 23:58N 51°40' E 004°10'0 0.0
2017-Nov-19 23:29N 51°40' E 004°10'0 0.0
2017-Nov-19 12:25N 51°40' E 004°10'0 0.0
2017-Nov-19 09:00N 51°40' E 004°10'0 0.0
2017-Nov-19 06:01N 51°40' E 004°10'0 0.0
2017-Nov-19 05:51N 51°40' E 004°10'0 0.0
2017-Nov-19 05:20N 51°40' E 004°10'0 0.0
2017-Nov-19 02:53N 51°40' E 004°10'0 0.0
2017-Nov-19 02:04N 51°40' E 004°10'0 0.0
2017-Nov-19 01:51N 51°40' E 004°10'0 0.0
2017-Nov-19 00:54N 51°40' E 004°10'0 0.0
2017-Nov-18 23:52N 51°40' E 004°10'0 0.0
2017-Nov-18 23:29N 51°40' E 004°10'0 0.0
2017-Nov-18 22:43N 51°40' E 004°10'0 0.0
2017-Nov-18 22:27N 51°40' E 004°10'0 0.0
2017-Nov-18 21:57N 51°40' E 004°10'0 0.0
2017-Nov-18 21:16N 51°40' E 004°10'0 0.0
2017-Nov-18 20:56N 51°40' E 004°10'0 0.0
2017-Nov-18 06:00N 51°40' E 004°10'0 0.0
2017-Nov-18 05:26N 51°40' E 004°10'0 0.0
2017-Nov-18 04:12N 51°40' E 004°10'0 0.0
2017-Nov-17 19:01N 51°40' E 004°10'0 0.0
2017-Nov-17 18:58N 51°40' E 004°10'0 0.0
2017-Nov-17 18:29N 51°40' E 004°10'0 0.0
2017-Nov-17 16:41N 51°40' E 004°10'0 0.0
2017-Nov-17 14:52N 51°40' E 004°10'0 0.0
2017-Nov-17 14:30N 51°40' E 004°10'0 0.0
2017-Nov-17 13:59N 51°40' E 004°10'0 0.0
2017-Nov-17 13:27N 51°40' E 004°10'0 0.0
2017-Nov-17 13:00N 51°40' E 004°10'0 0.0
2017-Nov-17 12:30N 51°40' E 004°10'0 0.0
2017-Nov-17 11:56N 51°40' E 004°10'0 0.0
2017-Nov-17 11:23N 51°40' E 004°10'0 0.0
2017-Nov-17 10:55N 51°40' E 004°10'0 0.0
2017-Nov-17 10:20N 51°40' E 004°10'0 0.0
2017-Nov-17 08:28N 51°40' E 004°10'0 0.0
2017-Nov-17 07:59N 51°40' E 004°10'0 0.0
2017-Nov-17 06:55N 51°40' E 004°10'0 0.0
2017-Nov-17 06:30N 51°40' E 004°10'0 0.0
2017-Nov-17 05:51N 51°40' E 004°10'0 0.0
2017-Nov-17 05:29N 51°40' E 004°10'0 0.0
2017-Nov-17 04:54N 51°40' E 004°10'0 0.0
2017-Nov-17 04:25N 51°40' E 004°10'0 0.0
2017-Nov-17 03:57N 51°40' E 004°10'0 0.0
2017-Nov-17 03:30N 51°40' E 004°10'0 0.0
2017-Nov-17 02:59N 51°40' E 004°10'0 0.0
2017-Nov-17 02:29N 51°40' E 004°10'0 0.0
2017-Nov-17 01:55N 51°40' E 004°10'0 0.0
2017-Nov-17 01:29N 51°40' E 004°10'0 0.0
2017-Nov-17 00:59N 51°40' E 004°10'0 0.0
2017-Nov-17 00:16N 51°40' E 004°10'0 0.0
2017-Nov-16 23:59N 51°40' E 004°10'0 0.0
2017-Nov-16 23:29N 51°40' E 004°10'0 0.0
2017-Nov-16 23:00N 51°40' E 004°10'0 0.0
2017-Nov-16 22:30N 51°40' E 004°10'0 0.0
2017-Nov-16 22:00N 51°40' E 004°10'0 0.0
2017-Nov-16 21:20N 51°40' E 004°10'0 0.0
2017-Nov-16 20:59N 51°40' E 004°10'0 0.0
2017-Nov-16 20:24N 51°40' E 004°10'0 0.0
2017-Nov-16 20:00N 51°40' E 004°10'0 0.0
2017-Nov-16 07:10N 51°40' E 004°10'0 0.0
2017-Nov-16 04:41N 51°40' E 004°10'0 0.0
2017-Nov-15 17:58N 51°40' E 004°10'0 0.0
2017-Nov-15 17:25N 51°40' E 004°10'4 1.7
2017-Nov-15 15:11N 51°38' E 004°05'1 5.5
2017-Nov-15 14:58N 51°37' E 004°04'3 5.1
2017-Nov-15 14:26N 51°36' E 003°60'4 4.9
2017-Nov-15 13:41N 51°32' E 003°60'2 6.2
2017-Nov-15 13:25N 51°31' E 004°01'3 6.3
2017-Nov-15 13:00N 51°28' E 004°00'1 2.4
2017-Nov-15 12:30N 51°27' E 004°01'0 0.1
2017-Nov-15 12:00N 51°27' E 004°01'0 0.0
2017-Nov-15 11:29N 51°27' E 004°01'0 0.0
2017-Nov-15 11:00N 51°27' E 004°01'0 0.0
2017-Nov-15 10:30N 51°27' E 004°01'0 0.0
2017-Nov-15 10:00N 51°27' E 004°01'0 0.0
2017-Nov-15 09:30N 51°27' E 004°01'0 0.0
2017-Nov-15 09:00N 51°27' E 004°01'0 0.0
2017-Nov-15 08:30N 51°27' E 004°01'0 0.0
2017-Nov-15 08:00N 51°27' E 004°01'0 0.0
2017-Nov-15 07:30N 51°27' E 004°01'0 0.0
2017-Nov-15 07:00N 51°27' E 004°01'0 0.0
2017-Nov-15 06:29N 51°27' E 004°01'0 0.0
2017-Nov-15 06:00N 51°27' E 004°01'0 0.0
2017-Nov-15 05:30N 51°27' E 004°01'0 0.0
2017-Nov-15 05:00N 51°27' E 004°01'0 0.0
2017-Nov-15 04:27N 51°27' E 004°01'0 0.0
2017-Nov-15 04:00N 51°27' E 004°01'0 0.0
2017-Nov-15 03:30N 51°27' E 004°01'0 0.0
2017-Nov-15 03:00N 51°27' E 004°01'0 0.0
2017-Nov-15 02:30N 51°27' E 004°01'0 0.0
2017-Nov-15 02:00N 51°27' E 004°01'0 0.0
2017-Nov-15 01:30N 51°27' E 004°01'0 0.0
2017-Nov-15 01:00N 51°27' E 004°01'0 0.0
2017-Nov-15 00:30N 51°27' E 004°01'0 0.0
2017-Nov-15 00:00N 51°27' E 004°01'0 0.0
2017-Nov-14 23:30N 51°27' E 004°01'0 0.0
2017-Nov-14 23:00N 51°27' E 004°01'0 0.0
2017-Nov-14 22:30N 51°27' E 004°01'0 0.0
2017-Nov-14 22:00N 51°27' E 004°01'0 0.0
2017-Nov-14 21:30N 51°27' E 004°01'0 0.0
2017-Nov-14 21:00N 51°27' E 004°01'0 0.0
2017-Nov-14 20:30N 51°27' E 004°01'0 0.0
2017-Nov-14 20:00N 51°27' E 004°01'0 0.0
2017-Nov-14 19:30N 51°27' E 004°01'0 0.0
2017-Nov-14 19:00N 51°27' E 004°01'0 0.0
2017-Nov-14 18:29N 51°27' E 004°01'0 0.0
2017-Nov-14 17:58N 51°27' E 004°01'0 0.0
2017-Nov-14 17:28N 51°27' E 004°01'0 0.0
2017-Nov-14 17:00N 51°27' E 004°01'0 0.0
2017-Nov-14 16:30N 51°27' E 004°01'0 0.0
2017-Nov-14 16:00N 51°27' E 004°01'0 0.0
2017-Nov-14 15:30N 51°27' E 004°01'0 0.0
2017-Nov-14 15:00N 51°27' E 004°01'0 0.0
2017-Nov-14 14:30N 51°27' E 004°01'0 0.0
2017-Nov-14 14:00N 51°27' E 004°01'0 0.0
2017-Nov-14 13:29N 51°27' E 004°01'0 0.0
2017-Nov-14 13:00N 51°27' E 004°01'0 0.0
2017-Nov-14 12:28N 51°27' E 004°01'0 0.0
2017-Nov-14 12:00N 51°27' E 004°01'0 0.0
2017-Nov-14 11:30N 51°27' E 004°01'0 0.0
2017-Nov-14 11:00N 51°27' E 004°01'0 0.0
2017-Nov-14 10:30N 51°27' E 004°01'0 0.0
2017-Nov-14 10:00N 51°27' E 004°01'0 0.0
2017-Nov-14 09:30N 51°27' E 004°01'0 0.0
2017-Nov-14 09:00N 51°27' E 004°01'0 0.0
2017-Nov-14 08:27N 51°27' E 004°01'0 0.0
2017-Nov-14 08:00N 51°27' E 004°01'0 0.0
2017-Nov-14 07:30N 51°27' E 004°01'0 0.0
2017-Nov-14 07:00N 51°27' E 004°01'0 0.0
2017-Nov-14 06:30N 51°27' E 004°01'0 0.0
2017-Nov-14 06:00N 51°27' E 004°01'0 0.0
2017-Nov-14 05:30N 51°27' E 004°01'0 0.0
2017-Nov-14 04:54N 51°27' E 004°01'0 0.0
2017-Nov-14 04:29N 51°27' E 004°01'0 0.0
2017-Nov-14 03:58N 51°27' E 004°01'0 0.0
2017-Nov-14 03:30N 51°27' E 004°01'0 0.0
2017-Nov-14 03:00N 51°27' E 004°01'0 0.0
2017-Nov-14 02:30N 51°27' E 004°01'0 0.0
2017-Nov-14 01:59N 51°27' E 004°01'0 0.0
2017-Nov-14 01:30N 51°27' E 004°01'0 0.0
2017-Nov-14 01:00N 51°27' E 004°01'0 0.0
2017-Nov-14 00:30N 51°27' E 004°01'0 0.0
2017-Nov-14 00:00N 51°27' E 004°01'0 0.0
2017-Nov-13 23:29N 51°27' E 004°01'0 0.0
2017-Nov-13 23:00N 51°27' E 004°01'0 0.0
2017-Nov-13 22:30N 51°27' E 004°01'0 0.0
2017-Nov-13 22:00N 51°27' E 004°01'0 0.0
2017-Nov-13 02:00N 51°27' E 004°01'0 0.0
2017-Nov-13 01:30N 51°27' E 004°01'0 0.0
2017-Nov-13 00:59N 51°27' E 004°01'0 0.0
2017-Nov-13 00:29N 51°27' E 004°01'0 0.0
2017-Nov-13 00:00N 51°27' E 004°01'0 0.0
2017-Nov-12 23:30N 51°27' E 004°01'0 0.0
2017-Nov-12 23:00N 51°27' E 004°01'0 0.0
2017-Nov-12 22:30N 51°27' E 004°01'0 0.0
2017-Nov-12 22:00N 51°27' E 004°01'0 0.0
2017-Nov-12 21:30N 51°27' E 004°01'0 0.0
2017-Nov-12 21:00N 51°27' E 004°01'0 0.0
2017-Nov-12 20:30N 51°27' E 004°01'0 0.0
2017-Nov-12 20:00N 51°27' E 004°01'0 0.0
2017-Nov-12 19:30N 51°27' E 004°01'0 0.0
2017-Nov-12 19:00N 51°27' E 004°01'0 0.0
2017-Nov-12 18:30N 51°27' E 004°01'0 0.0
2017-Nov-12 18:00N 51°27' E 004°01'0 0.0
2017-Nov-12 17:30N 51°27' E 004°01'0 0.0
2017-Nov-12 17:00N 51°27' E 004°01'0 0.0
2017-Nov-12 16:30N 51°27' E 004°01'0 0.0
2017-Nov-12 16:00N 51°27' E 004°01'0 0.0
2017-Nov-12 15:30N 51°27' E 004°01'0 0.0
2017-Nov-12 15:00N 51°27' E 004°01'0 0.0
2017-Nov-12 14:27N 51°27' E 004°01'0 0.0
2017-Nov-12 13:59N 51°27' E 004°01'0 0.0
2017-Nov-12 13:16N 51°27' E 004°01'0 0.0
2017-Nov-12 13:00N 51°27' E 004°01'0 0.0
2017-Nov-12 12:30N 51°27' E 004°01'0 0.0
2017-Nov-12 12:00N 51°27' E 004°01'0 0.0
2017-Nov-12 11:30N 51°27' E 004°01'0 0.0
2017-Nov-12 11:00N 51°27' E 004°01'0 0.0
2017-Nov-12 10:29N 51°27' E 004°01'0 0.0
2017-Nov-12 09:59N 51°27' E 004°01'0 0.0
2017-Nov-12 09:30N 51°27' E 004°01'0 0.0
2017-Nov-12 09:00N 51°27' E 004°01'0 0.0
2017-Nov-12 08:30N 51°27' E 004°01'0 0.0
2017-Nov-12 07:59N 51°27' E 004°01'0 0.0
2017-Nov-12 07:30N 51°27' E 004°01'0 0.0
2017-Nov-12 07:00N 51°27' E 004°01'0 0.0
2017-Nov-12 06:30N 51°27' E 004°01'0 0.0
2017-Nov-12 06:00N 51°27' E 004°01'0 0.0
2017-Nov-12 05:29N 51°27' E 004°01'0 0.0
2017-Nov-12 05:00N 51°27' E 004°01'0 0.0
2017-Nov-12 04:30N 51°27' E 004°01'0 0.0
2017-Nov-12 04:00N 51°27' E 004°01'0 0.0
2017-Nov-12 03:30N 51°27' E 004°01'0 0.0
2017-Nov-12 03:00N 51°27' E 004°01'0 0.0
2017-Nov-12 02:30N 51°27' E 004°01'0 0.0
2017-Nov-12 02:00N 51°27' E 004°01'0 0.0
2017-Nov-12 01:30N 51°27' E 004°01'0 0.0
2017-Nov-12 00:59N 51°27' E 004°01'0 0.0
2017-Nov-12 00:29N 51°27' E 004°01'0 0.0
2017-Nov-12 00:00N 51°27' E 004°01'0 0.0
2017-Nov-11 23:30N 51°27' E 004°01'0 0.0
2017-Nov-11 23:00N 51°27' E 004°01'0 0.0
2017-Nov-11 22:30N 51°27' E 004°01'0 0.0
2017-Nov-11 21:59N 51°27' E 004°01'0 0.0
2017-Nov-11 21:30N 51°27' E 004°01'0 0.0
2017-Nov-11 20:59N 51°27' E 004°01'0 0.0
2017-Nov-11 20:30N 51°27' E 004°01'0 0.0
2017-Nov-11 20:00N 51°27' E 004°01'0 0.0
2017-Nov-11 19:30N 51°27' E 004°01'0 0.0
2017-Nov-11 19:00N 51°27' E 004°01'0 0.0
2017-Nov-11 18:30N 51°27' E 004°01'0 0.0
2017-Nov-11 18:00N 51°27' E 004°01'0 0.0
2017-Nov-11 17:30N 51°27' E 004°01'0 0.0
2017-Nov-11 17:00N 51°27' E 004°01'0 0.0
2017-Nov-11 16:30N 51°27' E 004°01'0 0.0
2017-Nov-11 15:58N 51°27' E 004°01'0 0.0
2017-Nov-11 15:30N 51°27' E 004°01'0 0.0
2017-Nov-11 15:00N 51°27' E 004°01'0 0.0
2017-Nov-11 14:30N 51°27' E 004°01'0 0.0
2017-Nov-11 14:00N 51°27' E 004°01'0 0.0
2017-Nov-11 13:25N 51°27' E 004°01'0 0.0
2017-Nov-11 12:58N 51°27' E 004°01'0 0.0
2017-Nov-11 12:28N 51°27' E 004°01'0 0.0
2017-Nov-11 11:58N 51°27' E 004°01'0 0.0
2017-Nov-11 11:25N 51°27' E 004°01'0 0.0
2017-Nov-11 11:00N 51°27' E 004°01'0 0.0
2017-Nov-11 10:30N 51°27' E 004°01'0 0.0
2017-Nov-11 10:00N 51°27' E 004°01'0 0.0
2017-Nov-11 09:29N 51°27' E 004°01'0 0.0
2017-Nov-11 09:00N 51°27' E 004°01'0 0.0
2017-Nov-11 08:30N 51°27' E 004°01'0 0.0
2017-Nov-11 08:00N 51°27' E 004°01'0 0.0
2017-Nov-11 07:30N 51°27' E 004°01'0 0.0
2017-Nov-11 07:00N 51°27' E 004°01'0 0.0
2017-Nov-11 06:29N 51°27' E 004°01'0 0.0
2017-Nov-11 06:00N 51°27' E 004°01'0 0.0
2017-Nov-11 05:30N 51°27' E 004°01'0 0.0
2017-Nov-11 05:00N 51°27' E 004°01'0 0.0
2017-Nov-11 04:30N 51°27' E 004°01'0 0.0
2017-Nov-11 04:00N 51°27' E 004°01'0 0.0
2017-Nov-11 03:30N 51°27' E 004°01'0 0.0
2017-Nov-11 03:00N 51°27' E 004°01'0 0.0
2017-Nov-11 02:30N 51°27' E 004°01'0 0.0
2017-Nov-11 02:00N 51°27' E 004°01'0 0.0
2017-Nov-11 01:30N 51°27' E 004°01'0 0.0
2017-Nov-11 01:00N 51°27' E 004°01'0 0.0
2017-Nov-11 00:29N 51°27' E 004°01'0 0.0
2017-Nov-10 23:52N 51°27' E 004°01'0 0.0
2017-Nov-10 23:30N 51°27' E 004°01'0 0.0
2017-Nov-10 23:00N 51°27' E 004°01'0 0.0
2017-Nov-10 22:30N 51°27' E 004°01'0 0.0
2017-Nov-10 22:00N 51°27' E 004°01'0 0.0
2017-Nov-10 21:29N 51°27' E 004°01'0 0.0
2017-Nov-10 21:00N 51°27' E 004°01'0 0.0
2017-Nov-10 20:30N 51°27' E 004°01'0 0.0
2017-Nov-10 20:00N 51°27' E 004°01'0 0.0
2017-Nov-10 19:30N 51°27' E 004°01'0 0.0
2017-Nov-10 19:00N 51°27' E 004°01'0 0.0
2017-Nov-10 18:30N 51°27' E 004°01'0 0.0
2017-Nov-10 18:00N 51°27' E 004°01'0 0.0
2017-Nov-10 17:30N 51°27' E 004°01'0 0.0
2017-Nov-10 17:00N 51°27' E 004°01'0 0.0
2017-Nov-10 16:30N 51°27' E 004°01'0 0.0
2017-Nov-10 16:00N 51°27' E 004°01'0 0.0
2017-Nov-10 15:29N 51°27' E 004°01'0 0.0
2017-Nov-10 15:00N 51°27' E 004°01'0 0.0
2017-Nov-10 14:28N 51°27' E 004°01'0 0.0
2017-Nov-10 14:00N 51°27' E 004°01'0 0.0
2017-Nov-10 13:28N 51°27' E 004°01'0 0.0
2017-Nov-10 12:58N 51°27' E 004°01'0 0.8
2017-Nov-10 12:29N 51°28' E 004°01'1 1.3
2017-Nov-10 12:00N 51°28' E 004°00'4 6.8
2017-Nov-10 11:29N 51°32' E 004°00'8 2.6
2017-Nov-10 08:21N 51°36' E 004°11'3 7.5
2017-Nov-10 07:56N 51°33' E 004°14'3 7.7
2017-Nov-10 07:30N 51°30' E 004°13'3 6.0
2017-Nov-10 07:00N 51°27' E 004°14'0 0.0
2017-Nov-10 06:30N 51°27' E 004°14'0 0.0
2017-Nov-10 06:00N 51°27' E 004°14'0 0.0
2017-Nov-10 05:30N 51°27' E 004°14'0 0.0
2017-Nov-10 05:00N 51°27' E 004°14'0 0.0
2017-Nov-10 04:29N 51°27' E 004°14'0 0.0
2017-Nov-10 03:59N 51°27' E 004°14'0 0.0
2017-Nov-10 03:29N 51°27' E 004°14'0 0.0
2017-Nov-10 00:40N 51°27' E 004°14'0 0.0
2017-Nov-10 00:26N 51°27' E 004°14'  
Track history (hours):
 
Tides and Currents Weather Stations Pressure Air Temp Water Temp Dewpoint Dewpoint Depression Visibility Wind Speed Wind Dir Waves Ship Positions

Oceanographic research ship Delta (Netherlands)

Detailed information on ship capabilities available from University of Delaware's Ocean Information Center.

Last reported at 2017-Nov-20 00:22 UTC. Time now 2017-Nov-21 00:38 UTC.
Position N 51°40' E 004°10'.

MMSI: 244696464.

Date/timePositionNaut miles runAvg speedWind from/ knotsBaromVisibWave heightAir tempDewpointWater temp
2017-Nov-20 00:22N 51°40' E 004°10'0 0.0
2017-Nov-19 23:58N 51°40' E 004°10'0 0.0
2017-Nov-19 23:29N 51°40' E 004°10'0 0.0
2017-Nov-19 12:25N 51°40' E 004°10'0 0.0
2017-Nov-19 09:00N 51°40' E 004°10'0 0.0
2017-Nov-19 06:01N 51°40' E 004°10'0 0.0
2017-Nov-19 05:51N 51°40' E 004°10'0 0.0
2017-Nov-19 05:20N 51°40' E 004°10'0 0.0
2017-Nov-19 02:53N 51°40' E 004°10'0 0.0
2017-Nov-19 02:04N 51°40' E 004°10'0 0.0
2017-Nov-19 01:51N 51°40' E 004°10'0 0.0
2017-Nov-19 00:54N 51°40' E 004°10'0 0.0
2017-Nov-18 23:52N 51°40' E 004°10'0 0.0
2017-Nov-18 23:29N 51°40' E 004°10'0 0.0
2017-Nov-18 22:43N 51°40' E 004°10'0 0.0
2017-Nov-18 22:27N 51°40' E 004°10'0 0.0
2017-Nov-18 21:57N 51°40' E 004°10'0 0.0
2017-Nov-18 21:16N 51°40' E 004°10'0 0.0
2017-Nov-18 20:56N 51°40' E 004°10'0 0.0
2017-Nov-18 06:00N 51°40' E 004°10'0 0.0
2017-Nov-18 05:26N 51°40' E 004°10'0 0.0
2017-Nov-18 04:12N 51°40' E 004°10'0 0.0
2017-Nov-17 19:01N 51°40' E 004°10'0 0.0
2017-Nov-17 18:58N 51°40' E 004°10'0 0.0
2017-Nov-17 18:29N 51°40' E 004°10'0 0.0
2017-Nov-17 16:41N 51°40' E 004°10'0 0.0
2017-Nov-17 14:52N 51°40' E 004°10'0 0.0
2017-Nov-17 14:30N 51°40' E 004°10'0 0.0
2017-Nov-17 13:59N 51°40' E 004°10'0 0.0
2017-Nov-17 13:27N 51°40' E 004°10'0 0.0
2017-Nov-17 13:00N 51°40' E 004°10'0 0.0
2017-Nov-17 12:30N 51°40' E 004°10'0 0.0
2017-Nov-17 11:56N 51°40' E 004°10'0 0.0
2017-Nov-17 11:23N 51°40' E 004°10'0 0.0
2017-Nov-17 10:55N 51°40' E 004°10'0 0.0
2017-Nov-17 10:20N 51°40' E 004°10'0 0.0
2017-Nov-17 08:28N 51°40' E 004°10'0 0.0
2017-Nov-17 07:59N 51°40' E 004°10'0 0.0
2017-Nov-17 06:55N 51°40' E 004°10'0 0.0
2017-Nov-17 06:30N 51°40' E 004°10'0 0.0
2017-Nov-17 05:51N 51°40' E 004°10'0 0.0
2017-Nov-17 05:29N 51°40' E 004°10'0 0.0
2017-Nov-17 04:54N 51°40' E 004°10'0 0.0
2017-Nov-17 04:25N 51°40' E 004°10'0 0.0
2017-Nov-17 03:57N 51°40' E 004°10'0 0.0
2017-Nov-17 03:30N 51°40' E 004°10'0 0.0
2017-Nov-17 02:59N 51°40' E 004°10'0 0.0
2017-Nov-17 02:29N 51°40' E 004°10'0 0.0
2017-Nov-17 01:55N 51°40' E 004°10'0 0.0
2017-Nov-17 01:29N 51°40' E 004°10'0 0.0
2017-Nov-17 00:59N 51°40' E 004°10'0 0.0
2017-Nov-17 00:16N 51°40' E 004°10'0 0.0
2017-Nov-16 23:59N 51°40' E 004°10'0 0.0
2017-Nov-16 23:29N 51°40' E 004°10'0 0.0
2017-Nov-16 23:00N 51°40' E 004°10'0 0.0
2017-Nov-16 22:30N 51°40' E 004°10'0 0.0
2017-Nov-16 22:00N 51°40' E 004°10'0 0.0
2017-Nov-16 21:20N 51°40' E 004°10'0 0.0
2017-Nov-16 20:59N 51°40' E 004°10'0 0.0
2017-Nov-16 20:24N 51°40' E 004°10'0 0.0
2017-Nov-16 20:00N 51°40' E 004°10'0 0.0
2017-Nov-16 07:10N 51°40' E 004°10'0 0.0
2017-Nov-16 04:41N 51°40' E 004°10'0 0.0
2017-Nov-15 17:58N 51°40' E 004°10'0 0.0
2017-Nov-15 17:25N 51°40' E 004°10'4 1.7
2017-Nov-15 15:11N 51°38' E 004°05'1 5.5
2017-Nov-15 14:58N 51°37' E 004°04'3 5.1
2017-Nov-15 14:26N 51°36' E 003°60'4 4.9
2017-Nov-15 13:41N 51°32' E 003°60'2 6.2
2017-Nov-15 13:25N 51°31' E 004°01'3 6.3
2017-Nov-15 13:00N 51°28' E 004°00'1 2.4
2017-Nov-15 12:30N 51°27' E 004°01'0 0.1
2017-Nov-15 12:00N 51°27' E 004°01'0 0.0
2017-Nov-15 11:29N 51°27' E 004°01'0 0.0
2017-Nov-15 11:00N 51°27' E 004°01'0 0.0
2017-Nov-15 10:30N 51°27' E 004°01'0 0.0
2017-Nov-15 10:00N 51°27' E 004°01'0 0.0
2017-Nov-15 09:30N 51°27' E 004°01'0 0.0
2017-Nov-15 09:00N 51°27' E 004°01'0 0.0
2017-Nov-15 08:30N 51°27' E 004°01'0 0.0
2017-Nov-15 08:00N 51°27' E 004°01'0 0.0
2017-Nov-15 07:30N 51°27' E 004°01'0 0.0
2017-Nov-15 07:00N 51°27' E 004°01'0 0.0
2017-Nov-15 06:29N 51°27' E 004°01'0 0.0
2017-Nov-15 06:00N 51°27' E 004°01'0 0.0
2017-Nov-15 05:30N 51°27' E 004°01'0 0.0
2017-Nov-15 05:00N 51°27' E 004°01'0 0.0
2017-Nov-15 04:27N 51°27' E 004°01'0 0.0
2017-Nov-15 04:00N 51°27' E 004°01'0 0.0
2017-Nov-15 03:30N 51°27' E 004°01'0 0.0
2017-Nov-15 03:00N 51°27' E 004°01'0 0.0
2017-Nov-15 02:30N 51°27' E 004°01'0 0.0
2017-Nov-15 02:00N 51°27' E 004°01'0 0.0
2017-Nov-15 01:30N 51°27' E 004°01'0 0.0
2017-Nov-15 01:00N 51°27' E 004°01'0 0.0
2017-Nov-15 00:30N 51°27' E 004°01'0 0.0
2017-Nov-15 00:00N 51°27' E 004°01'0 0.0
2017-Nov-14 23:30N 51°27' E 004°01'0 0.0
2017-Nov-14 23:00N 51°27' E 004°01'0 0.0
2017-Nov-14 22:30N 51°27' E 004°01'0 0.0
2017-Nov-14 22:00N 51°27' E 004°01'0 0.0
2017-Nov-14 21:30N 51°27' E 004°01'0 0.0
2017-Nov-14 21:00N 51°27' E 004°01'0 0.0
2017-Nov-14 20:30N 51°27' E 004°01'0 0.0
2017-Nov-14 20:00N 51°27' E 004°01'0 0.0
2017-Nov-14 19:30N 51°27' E 004°01'0 0.0
2017-Nov-14 19:00N 51°27' E 004°01'0 0.0
2017-Nov-14 18:29N 51°27' E 004°01'0 0.0
2017-Nov-14 17:58N 51°27' E 004°01'0 0.0
2017-Nov-14 17:28N 51°27' E 004°01'0 0.0
2017-Nov-14 17:00N 51°27' E 004°01'0 0.0
2017-Nov-14 16:30N 51°27' E 004°01'0 0.0
2017-Nov-14 16:00N 51°27' E 004°01'0 0.0
2017-Nov-14 15:30N 51°27' E 004°01'0 0.0
2017-Nov-14 15:00N 51°27' E 004°01'0 0.0
2017-Nov-14 14:30N 51°27' E 004°01'0 0.0
2017-Nov-14 14:00N 51°27' E 004°01'0 0.0
2017-Nov-14 13:29N 51°27' E 004°01'0 0.0
2017-Nov-14 13:00N 51°27' E 004°01'0 0.0
2017-Nov-14 12:28N 51°27' E 004°01'0 0.0
2017-Nov-14 12:00N 51°27' E 004°01'0 0.0
2017-Nov-14 11:30N 51°27' E 004°01'0 0.0
2017-Nov-14 11:00N 51°27' E 004°01'0 0.0
2017-Nov-14 10:30N 51°27' E 004°01'0 0.0
2017-Nov-14 10:00N 51°27' E 004°01'0 0.0
2017-Nov-14 09:30N 51°27' E 004°01'0 0.0
2017-Nov-14 09:00N 51°27' E 004°01'0 0.0
2017-Nov-14 08:27N 51°27' E 004°01'0 0.0
2017-Nov-14 08:00N 51°27' E 004°01'0 0.0
2017-Nov-14 07:30N 51°27' E 004°01'0 0.0
2017-Nov-14 07:00N 51°27' E 004°01'0 0.0
2017-Nov-14 06:30N 51°27' E 004°01'0 0.0
2017-Nov-14 06:00N 51°27' E 004°01'0 0.0
2017-Nov-14 05:30N 51°27' E 004°01'0 0.0
2017-Nov-14 04:54N 51°27' E 004°01'0 0.0
2017-Nov-14 04:29N 51°27' E 004°01'0 0.0
2017-Nov-14 03:58N 51°27' E 004°01'0 0.0
2017-Nov-14 03:30N 51°27' E 004°01'0 0.0
2017-Nov-14 03:00N 51°27' E 004°01'0 0.0
2017-Nov-14 02:30N 51°27' E 004°01'0 0.0
2017-Nov-14 01:59N 51°27' E 004°01'0 0.0
2017-Nov-14 01:30N 51°27' E 004°01'0 0.0
2017-Nov-14 01:00N 51°27' E 004°01'0 0.0
2017-Nov-14 00:30N 51°27' E 004°01'0 0.0
2017-Nov-14 00:00N 51°27' E 004°01'0 0.0
2017-Nov-13 23:29N 51°27' E 004°01'0 0.0
2017-Nov-13 23:00N 51°27' E 004°01'0 0.0
2017-Nov-13 22:30N 51°27' E 004°01'0 0.0
2017-Nov-13 22:00N 51°27' E 004°01'0 0.0
2017-Nov-13 02:00N 51°27' E 004°01'0 0.0
2017-Nov-13 01:30N 51°27' E 004°01'0 0.0
2017-Nov-13 00:59N 51°27' E 004°01'0 0.0
2017-Nov-13 00:29N 51°27' E 004°01'0 0.0
2017-Nov-13 00:00N 51°27' E 004°01'0 0.0
2017-Nov-12 23:30N 51°27' E 004°01'0 0.0
2017-Nov-12 23:00N 51°27' E 004°01'0 0.0
2017-Nov-12 22:30N 51°27' E 004°01'0 0.0
2017-Nov-12 22:00N 51°27' E 004°01'0 0.0
2017-Nov-12 21:30N 51°27' E 004°01'0 0.0
2017-Nov-12 21:00N 51°27' E 004°01'0 0.0
2017-Nov-12 20:30N 51°27' E 004°01'0 0.0
2017-Nov-12 20:00N 51°27' E 004°01'0 0.0
2017-Nov-12 19:30N 51°27' E 004°01'0 0.0
2017-Nov-12 19:00N 51°27' E 004°01'0 0.0
2017-Nov-12 18:30N 51°27' E 004°01'0 0.0
2017-Nov-12 18:00N 51°27' E 004°01'0 0.0
2017-Nov-12 17:30N 51°27' E 004°01'0 0.0
2017-Nov-12 17:00N 51°27' E 004°01'0 0.0
2017-Nov-12 16:30N 51°27' E 004°01'0 0.0
2017-Nov-12 16:00N 51°27' E 004°01'0 0.0
2017-Nov-12 15:30N 51°27' E 004°01'0 0.0
2017-Nov-12 15:00N 51°27' E 004°01'0 0.0
2017-Nov-12 14:27N 51°27' E 004°01'0 0.0
2017-Nov-12 13:59N 51°27' E 004°01'0 0.0
2017-Nov-12 13:16N 51°27' E 004°01'0 0.0
2017-Nov-12 13:00N 51°27' E 004°01'0 0.0
2017-Nov-12 12:30N 51°27' E 004°01'0 0.0
2017-Nov-12 12:00N 51°27' E 004°01'0 0.0
2017-Nov-12 11:30N 51°27' E 004°01'0 0.0
2017-Nov-12 11:00N 51°27' E 004°01'0 0.0
2017-Nov-12 10:29N 51°27' E 004°01'0 0.0
2017-Nov-12 09:59N 51°27' E 004°01'0 0.0
2017-Nov-12 09:30N 51°27' E 004°01'0 0.0
2017-Nov-12 09:00N 51°27' E 004°01'0 0.0
2017-Nov-12 08:30N 51°27' E 004°01'0 0.0
2017-Nov-12 07:59N 51°27' E 004°01'0 0.0
2017-Nov-12 07:30N 51°27' E 004°01'0 0.0
2017-Nov-12 07:00N 51°27' E 004°01'0 0.0
2017-Nov-12 06:30N 51°27' E 004°01'0 0.0
2017-Nov-12 06:00N 51°27' E 004°01'0 0.0
2017-Nov-12 05:29N 51°27' E 004°01'0 0.0
2017-Nov-12 05:00N 51°27' E 004°01'0 0.0
2017-Nov-12 04:30N 51°27' E 004°01'0 0.0
2017-Nov-12 04:00N 51°27' E 004°01'0 0.0
2017-Nov-12 03:30N 51°27' E 004°01'0 0.0
2017-Nov-12 03:00N 51°27' E 004°01'0 0.0
2017-Nov-12 02:30N 51°27' E 004°01'0 0.0
2017-Nov-12 02:00N 51°27' E 004°01'0 0.0
2017-Nov-12 01:30N 51°27' E 004°01'0 0.0
2017-Nov-12 00:59N 51°27' E 004°01'0 0.0
2017-Nov-12 00:29N 51°27' E 004°01'0 0.0
2017-Nov-12 00:00N 51°27' E 004°01'0 0.0
2017-Nov-11 23:30N 51°27' E 004°01'0 0.0
2017-Nov-11 23:00N 51°27' E 004°01'0 0.0
2017-Nov-11 22:30N 51°27' E 004°01'0 0.0
2017-Nov-11 21:59N 51°27' E 004°01'0 0.0
2017-Nov-11 21:30N 51°27' E 004°01'0 0.0
2017-Nov-11 20:59N 51°27' E 004°01'0 0.0
2017-Nov-11 20:30N 51°27' E 004°01'0 0.0
2017-Nov-11 20:00N 51°27' E 004°01'0 0.0
2017-Nov-11 19:30N 51°27' E 004°01'0 0.0
2017-Nov-11 19:00N 51°27' E 004°01'0 0.0
2017-Nov-11 18:30N 51°27' E 004°01'0 0.0
2017-Nov-11 18:00N 51°27' E 004°01'0 0.0
2017-Nov-11 17:30N 51°27' E 004°01'0 0.0
2017-Nov-11 17:00N 51°27' E 004°01'0 0.0
2017-Nov-11 16:30N 51°27' E 004°01'0 0.0
2017-Nov-11 15:58N 51°27' E 004°01'0 0.0
2017-Nov-11 15:30N 51°27' E 004°01'0 0.0
2017-Nov-11 15:00N 51°27' E 004°01'0 0.0
2017-Nov-11 14:30N 51°27' E 004°01'0 0.0
2017-Nov-11 14:00N 51°27' E 004°01'0 0.0
2017-Nov-11 13:25N 51°27' E 004°01'0 0.0
2017-Nov-11 12:58N 51°27' E 004°01'0 0.0
2017-Nov-11 12:28N 51°27' E 004°01'0 0.0
2017-Nov-11 11:58N 51°27' E 004°01'0 0.0
2017-Nov-11 11:25N 51°27' E 004°01'0 0.0
2017-Nov-11 11:00N 51°27' E 004°01'0 0.0
2017-Nov-11 10:30N 51°27' E 004°01'0 0.0
2017-Nov-11 10:00N 51°27' E 004°01'0 0.0
2017-Nov-11 09:29N 51°27' E 004°01'0 0.0
2017-Nov-11 09:00N 51°27' E 004°01'0 0.0
2017-Nov-11 08:30N 51°27' E 004°01'0 0.0
2017-Nov-11 08:00N 51°27' E 004°01'0 0.0
2017-Nov-11 07:30N 51°27' E 004°01'0 0.0
2017-Nov-11 07:00N 51°27' E 004°01'0 0.0
2017-Nov-11 06:29N 51°27' E 004°01'0 0.0
2017-Nov-11 06:00N 51°27' E 004°01'0 0.0
2017-Nov-11 05:30N 51°27' E 004°01'0 0.0
2017-Nov-11 05:00N 51°27' E 004°01'0 0.0
2017-Nov-11 04:30N 51°27' E 004°01'0 0.0
2017-Nov-11 04:00N 51°27' E 004°01'0 0.0
2017-Nov-11 03:30N 51°27' E 004°01'0 0.0
2017-Nov-11 03:00N 51°27' E 004°01'0 0.0
2017-Nov-11 02:30N 51°27' E 004°01'0 0.0
2017-Nov-11 02:00N 51°27' E 004°01'0 0.0
2017-Nov-11 01:30N 51°27' E 004°01'0 0.0
2017-Nov-11 01:00N 51°27' E 004°01'0 0.0
2017-Nov-11 00:29N 51°27' E 004°01'0 0.0
2017-Nov-10 23:52N 51°27' E 004°01'0 0.0
2017-Nov-10 23:30N 51°27' E 004°01'0 0.0
2017-Nov-10 23:00N 51°27' E 004°01'0 0.0
2017-Nov-10 22:30N 51°27' E 004°01'0 0.0
2017-Nov-10 22:00N 51°27' E 004°01'0 0.0
2017-Nov-10 21:29N 51°27' E 004°01'0 0.0
2017-Nov-10 21:00N 51°27' E 004°01'0 0.0
2017-Nov-10 20:30N 51°27' E 004°01'0 0.0
2017-Nov-10 20:00N 51°27' E 004°01'0 0.0
2017-Nov-10 19:30N 51°27' E 004°01'0 0.0
2017-Nov-10 19:00N 51°27' E 004°01'0 0.0
2017-Nov-10 18:30N 51°27' E 004°01'0 0.0
2017-Nov-10 18:00N 51°27' E 004°01'0 0.0
2017-Nov-10 17:30N 51°27' E 004°01'0 0.0
2017-Nov-10 17:00N 51°27' E 004°01'0 0.0
2017-Nov-10 16:30N 51°27' E 004°01'0 0.0
2017-Nov-10 16:00N 51°27' E 004°01'0 0.0
2017-Nov-10 15:29N 51°27' E 004°01'0 0.0
2017-Nov-10 15:00N 51°27' E 004°01'0 0.0
2017-Nov-10 14:28N 51°27' E 004°01'0 0.0
2017-Nov-10 14:00N 51°27' E 004°01'0 0.0
2017-Nov-10 13:28N 51°27' E 004°01'0 0.0
2017-Nov-10 12:58N 51°27' E 004°01'0 0.8
2017-Nov-10 12:29N 51°28' E 004°01'1 1.3
2017-Nov-10 12:00N 51°28' E 004°00'4 6.8
2017-Nov-10 11:29N 51°32' E 004°00'8 2.6
2017-Nov-10 08:21N 51°36' E 004°11'3 7.5
2017-Nov-10 07:56N 51°33' E 004°14'3 7.7
2017-Nov-10 07:30N 51°30' E 004°13'3 6.0
2017-Nov-10 07:00N 51°27' E 004°14'0 0.0
2017-Nov-10 06:30N 51°27' E 004°14'0 0.0
2017-Nov-10 06:00N 51°27' E 004°14'0 0.0
2017-Nov-10 05:30N 51°27' E 004°14'0 0.0
2017-Nov-10 05:00N 51°27' E 004°14'0 0.0
2017-Nov-10 04:29N 51°27' E 004°14'0 0.0
2017-Nov-10 03:59N 51°27' E 004°14'0 0.0
2017-Nov-10 03:29N 51°27' E 004°14'0 0.0
2017-Nov-10 00:40N 51°27' E 004°14'0 0.0
2017-Nov-10 00:26N 51°27' E 004°14'  

Dump ship's entire track history